sensor_id;sensor_type;location;lat;lon;timestamp;pressure;altitude;pressure_sealevel;temperature;humidity
41703;BME280;861;48.808;9.006;2022-10-03T00:24:33;97930.97;;;13.69;89.06
41703;BME280;861;48.808;9.006;2022-10-03T00:27:42;97922.78;;;13.73;88.77
41703;BME280;861;48.808;9.006;2022-10-03T00:31:13;97926.00;;;13.93;88.15
41703;BME280;861;48.808;9.006;2022-10-03T00:34:32;97931.72;;;13.59;89.69
41703;BME280;861;48.808;9.006;2022-10-03T00:38:12;97930.97;;;13.66;89.70
41703;BME280;861;48.808;9.006;2022-10-03T00:49:46;97947.03;;;13.67;89.64
41703;BME280;861;48.808;9.006;2022-10-03T00:53:32;97940.78;;;13.70;90.15
41703;BME280;861;48.808;9.006;2022-10-03T00:56:56;97945.03;;;13.68;90.55
41703;BME280;861;48.808;9.006;2022-10-03T01:00:20;97943.50;;;13.70;90.92
41703;BME280;861;48.808;9.006;2022-10-03T01:10:22;97941.25;;;13.87;88.73
41703;BME280;861;48.808;9.006;2022-10-03T01:22:09;97931.13;;;14.01;87.59
41703;BME280;861;48.808;9.006;2022-10-03T01:25:29;97939.97;;;13.70;89.04
41703;BME280;861;48.808;9.006;2022-10-03T01:35:58;97943.16;;;13.79;87.72
41703;BME280;861;48.808;9.006;2022-10-03T01:41:51;97954.88;;;13.76;88.12
41703;BME280;861;48.808;9.006;2022-10-03T01:48:52;97969.22;;;13.52;90.42
41703;BME280;861;48.808;9.006;2022-10-03T01:56:00;97979.38;;;13.51;90.46
41703;BME280;861;48.808;9.006;2022-10-03T02:03:44;97994.63;;;13.56;89.98
41703;BME280;861;48.808;9.006;2022-10-03T02:13:50;97994.19;;;13.50;90.55
41703;BME280;861;48.808;9.006;2022-10-03T02:17:07;98002.00;;;13.45;90.75
41703;BME280;861;48.808;9.006;2022-10-03T02:20:23;97994.50;;;13.38;91.54
41703;BME280;861;48.808;9.006;2022-10-03T02:23:48;97993.41;;;13.46;91.37
41703;BME280;861;48.808;9.006;2022-10-03T02:27:24;97986.03;;;13.57;90.76
41703;BME280;861;48.808;9.006;2022-10-03T02:31:29;97989.56;;;13.58;91.40
41703;BME280;861;48.808;9.006;2022-10-03T02:46:41;97992.44;;;13.82;88.45
41703;BME280;861;48.808;9.006;2022-10-03T02:57:44;97978.44;;;13.91;85.79
41703;BME280;861;48.808;9.006;2022-10-03T03:06:15;97972.09;;;13.76;85.78
41703;BME280;861;48.808;9.006;2022-10-03T03:13:43;97977.97;;;13.78;84.81
41703;BME280;861;48.808;9.006;2022-10-03T03:17:09;97977.50;;;13.69;85.36
41703;BME280;861;48.808;9.006;2022-10-03T03:20:53;97973.16;;;13.61;85.49
41703;BME280;861;48.808;9.006;2022-10-03T03:30:43;97980.44;;;13.40;85.76
41703;BME280;861;48.808;9.006;2022-10-03T03:37:41;97977.78;;;13.47;85.52
41703;BME280;861;48.808;9.006;2022-10-03T03:44:48;97973.34;;;13.32;86.28
41703;BME280;861;48.808;9.006;2022-10-03T03:52:05;97977.69;;;13.33;86.52
41703;BME280;861;48.808;9.006;2022-10-03T04:02:51;97986.38;;;13.45;85.37
41703;BME280;861;48.808;9.006;2022-10-03T04:06:34;97994.53;;;13.42;85.38
41703;BME280;861;48.808;9.006;2022-10-03T04:10:30;97991.75;;;13.31;85.95
41703;BME280;861;48.808;9.006;2022-10-03T04:31:49;97999.16;;;12.91;86.61
41703;BME280;861;48.808;9.006;2022-10-03T04:39:28;98010.44;;;12.82;86.67
41703;BME280;861;48.808;9.006;2022-10-03T04:46:39;98017.25;;;12.62;86.71
41703;BME280;861;48.808;9.006;2022-10-03T04:50:07;98017.88;;;12.49;88.49
41703;BME280;861;48.808;9.006;2022-10-03T04:53:35;98016.88;;;12.67;87.68
41703;BME280;861;48.808;9.006;2022-10-03T05:00:33;98018.16;;;12.73;87.64
41703;BME280;861;48.808;9.006;2022-10-03T05:04:14;98023.56;;;12.70;87.72
41703;BME280;861;48.808;9.006;2022-10-03T05:18:46;98028.06;;;12.88;87.76
41703;BME280;861;48.808;9.006;2022-10-03T05:29:26;98034.47;;;13.03;86.88
41703;BME280;861;48.808;9.006;2022-10-03T05:39:26;98049.78;;;13.14;86.46
41703;BME280;861;48.808;9.006;2022-10-03T05:42:43;98071.34;;;13.19;86.42
41703;BME280;861;48.808;9.006;2022-10-03T05:46:12;98076.00;;;13.15;86.54
41703;BME280;861;48.808;9.006;2022-10-03T05:56:37;98073.53;;;13.03;87.60
41703;BME280;861;48.808;9.006;2022-10-03T05:59:57;98080.16;;;13.02;87.85
41703;BME280;861;48.808;9.006;2022-10-03T06:07:02;98076.72;;;12.76;89.58
41703;BME280;861;48.808;9.006;2022-10-03T06:10:41;98071.75;;;12.85;90.08
41703;BME280;861;48.808;9.006;2022-10-03T06:14:28;98074.19;;;12.93;89.85
41703;BME280;861;48.808;9.006;2022-10-03T06:21:30;98086.09;;;13.08;88.86
41703;BME280;861;48.808;9.006;2022-10-03T06:48:26;98108.09;;;13.65;87.02
41703;BME280;861;48.808;9.006;2022-10-03T06:58:40;98116.72;;;13.67;87.43
41703;BME280;861;48.808;9.006;2022-10-03T07:02:20;98117.91;;;13.70;87.71
41703;BME280;861;48.808;9.006;2022-10-03T07:06:26;98117.16;;;13.73;87.89
41703;BME280;861;48.808;9.006;2022-10-03T07:16:44;98124.94;;;13.71;87.29
41703;BME280;861;48.808;9.006;2022-10-03T07:31:35;98139.97;;;13.44;88.54
41703;BME280;861;48.808;9.006;2022-10-03T07:35:22;98143.47;;;13.44;88.42
41703;BME280;861;48.808;9.006;2022-10-03T07:42:07;98147.81;;;13.45;87.24
41703;BME280;861;48.808;9.006;2022-10-03T07:49:23;98146.59;;;13.43;88.42
41703;BME280;861;48.808;9.006;2022-10-03T08:00:03;98141.25;;;13.57;88.66
41703;BME280;861;48.808;9.006;2022-10-03T08:03:54;98146.22;;;13.92;85.27
41703;BME280;861;48.808;9.006;2022-10-03T08:21:00;98166.19;;;13.48;87.08
41703;BME280;861;48.808;9.006;2022-10-03T08:28:34;98168.00;;;13.74;85.01
41703;BME280;861;48.808;9.006;2022-10-03T08:36:05;98172.22;;;13.64;84.68
41703;BME280;861;48.808;9.006;2022-10-03T08:40:00;98172.44;;;13.45;84.95
41703;BME280;861;48.808;9.006;2022-10-03T08:51:51;98176.31;;;13.44;88.02
41703;BME280;861;48.808;9.006;2022-10-03T08:55:44;98160.53;;;13.67;87.12
41703;BME280;861;48.808;9.006;2022-10-03T09:20:43;98174.06;;;14.55;85.33
41703;BME280;861;48.808;9.006;2022-10-03T09:24:15;98160.13;;;14.88;79.55
41703;BME280;861;48.808;9.006;2022-10-03T09:31:46;98157.84;;;14.97;79.09
41703;BME280;861;48.808;9.006;2022-10-03T09:39:00;98150.34;;;14.90;82.96
41703;BME280;861;48.808;9.006;2022-10-03T09:56:54;98141.53;;;15.71;75.17
41703;BME280;861;48.808;9.006;2022-10-03T10:00:30;98143.50;;;16.09;75.10
41703;BME280;861;48.808;9.006;2022-10-03T10:04:17;98149.75;;;16.06;70.01
41703;BME280;861;48.808;9.006;2022-10-03T10:15:19;98161.03;;;15.27;72.09
41703;BME280;861;48.808;9.006;2022-10-03T10:19:32;98164.50;;;15.03;73.76
41703;BME280;861;48.808;9.006;2022-10-03T10:45:42;98157.19;;;16.54;69.91
41703;BME280;861;48.808;9.006;2022-10-03T10:50:07;98164.28;;;16.13;73.56
41703;BME280;861;48.808;9.006;2022-10-03T11:00:20;98147.81;;;15.64;72.38
41703;BME280;861;48.808;9.006;2022-10-03T11:04:01;98152.09;;;15.62;74.10
41703;BME280;861;48.808;9.006;2022-10-03T11:08:12;98142.31;;;15.64;74.63
41703;BME280;861;48.808;9.006;2022-10-03T11:35:39;98140.59;;;17.55;69.09
41703;BME280;861;48.808;9.006;2022-10-03T11:51:11;98136.84;;;18.26;59.87
41703;BME280;861;48.808;9.006;2022-10-03T11:54:32;98129.50;;;18.54;59.94
41703;BME280;861;48.808;9.006;2022-10-03T11:57:40;98125.91;;;18.57;59.60
41703;BME280;861;48.808;9.006;2022-10-03T12:00:39;98135.50;;;18.79;65.33
41703;BME280;861;48.808;9.006;2022-10-03T12:03:40;98126.50;;;19.05;61.50
41703;BME280;861;48.808;9.006;2022-10-03T12:07:05;98126.13;;;18.73;61.72
41703;BME280;861;48.808;9.006;2022-10-03T12:10:48;98129.72;;;18.33;61.83
41703;BME280;861;48.808;9.006;2022-10-03T12:14:23;98124.66;;;17.80;64.92
41703;BME280;861;48.808;9.006;2022-10-03T12:17:34;98126.31;;;17.70;62.34
41703;BME280;861;48.808;9.006;2022-10-03T12:24:40;98124.69;;;17.15;65.90
41703;BME280;861;48.808;9.006;2022-10-03T12:28:22;98114.38;;;17.29;63.23
41703;BME280;861;48.808;9.006;2022-10-03T12:31:19;98114.13;;;17.03;64.36
41703;BME280;861;48.808;9.006;2022-10-03T12:34:37;98108.63;;;17.06;65.71
41703;BME280;861;48.808;9.006;2022-10-03T12:55:02;98077.25;;;18.73;61.55
41703;BME280;861;48.808;9.006;2022-10-03T12:58:32;98092.56;;;19.08;61.70
41703;BME280;861;48.808;9.006;2022-10-03T13:05:53;98073.16;;;19.64;58.23
41703;BME280;861;48.808;9.006;2022-10-03T13:09:47;98073.59;;;19.63;60.09
41703;BME280;861;48.808;9.006;2022-10-03T13:13:16;98074.13;;;19.54;57.13
41703;BME280;861;48.808;9.006;2022-10-03T13:16:27;98072.88;;;19.32;57.08
41703;BME280;861;48.808;9.006;2022-10-03T13:19:54;98077.63;;;19.32;56.49
41703;BME280;861;48.808;9.006;2022-10-03T13:27:06;98069.47;;;19.48;59.63
41703;BME280;861;48.808;9.006;2022-10-03T13:31:14;98078.03;;;19.30;60.69
41703;BME280;861;48.808;9.006;2022-10-03T13:34:21;98076.59;;;19.72;57.38
41703;BME280;861;48.808;9.006;2022-10-03T13:38:03;98071.56;;;19.90;56.14
41703;BME280;861;48.808;9.006;2022-10-03T13:41:31;98071.06;;;19.49;57.81
41703;BME280;861;48.808;9.006;2022-10-03T13:44:55;98062.81;;;19.68;53.56
41703;BME280;861;48.808;9.006;2022-10-03T13:48:06;98066.06;;;19.10;56.48
41703;BME280;861;48.808;9.006;2022-10-03T13:51:39;98067.03;;;19.00;55.40
41703;BME280;861;48.808;9.006;2022-10-03T13:58:30;98066.91;;;18.47;57.53
41703;BME280;861;48.808;9.006;2022-10-03T14:02:43;98064.53;;;18.49;58.13
41703;BME280;861;48.808;9.006;2022-10-03T14:05:59;98050.56;;;18.63;56.18
41703;BME280;861;48.808;9.006;2022-10-03T14:09:37;98055.69;;;18.27;58.87
41703;BME280;861;48.808;9.006;2022-10-03T14:16:28;98040.06;;;18.14;60.03
41703;BME280;861;48.808;9.006;2022-10-03T14:23:29;98047.22;;;18.08;61.91
41703;BME280;861;48.808;9.006;2022-10-03T14:27:08;98048.31;;;18.17;60.42
41703;BME280;861;48.808;9.006;2022-10-03T14:34:49;98039.50;;;18.29;60.06
41703;BME280;861;48.808;9.006;2022-10-03T14:44:37;98026.94;;;18.25;58.89
41703;BME280;861;48.808;9.006;2022-10-03T14:47:41;98035.41;;;18.45;55.63
41703;BME280;861;48.808;9.006;2022-10-03T14:50:41;98030.50;;;18.25;55.81
41703;BME280;861;48.808;9.006;2022-10-03T14:53:30;98037.50;;;18.33;55.93
41703;BME280;861;48.808;9.006;2022-10-03T14:56:20;98036.44;;;18.20;55.13
41703;BME280;861;48.808;9.006;2022-10-03T14:59:31;98029.34;;;17.86;57.41
41703;BME280;861;48.808;9.006;2022-10-03T15:02:44;98026.19;;;17.87;57.33
41703;BME280;861;48.808;9.006;2022-10-03T15:05:35;98031.53;;;17.64;59.91
41703;BME280;861;48.808;9.006;2022-10-03T15:08:30;98029.78;;;17.81;58.76
41703;BME280;861;48.808;9.006;2022-10-03T15:11:33;98026.66;;;17.79;59.90
41703;BME280;861;48.808;9.006;2022-10-03T15:14:30;98020.09;;;18.03;57.42
41703;BME280;861;48.808;9.006;2022-10-03T15:17:44;98022.00;;;17.72;59.17
41703;BME280;861;48.808;9.006;2022-10-03T15:20:41;98024.50;;;17.97;57.45
41703;BME280;861;48.808;9.006;2022-10-03T15:23:41;98027.88;;;17.74;57.20
41703;BME280;861;48.808;9.006;2022-10-03T15:26:36;98028.91;;;17.47;57.66
41703;BME280;861;48.808;9.006;2022-10-03T15:29:27;98026.25;;;17.33;57.29
41703;BME280;861;48.808;9.006;2022-10-03T15:32:46;98025.63;;;17.11;59.02
41703;BME280;861;48.808;9.006;2022-10-03T15:35:41;98023.50;;;17.33;57.93
41703;BME280;861;48.808;9.006;2022-10-03T15:38:41;98025.97;;;17.20;58.70
41703;BME280;861;48.808;9.006;2022-10-03T15:41:55;98019.66;;;17.20;57.61
41703;BME280;861;48.808;9.006;2022-10-03T15:45:02;98017.13;;;16.88;58.77
41703;BME280;861;48.808;9.006;2022-10-03T15:47:56;98014.38;;;16.88;59.39
41703;BME280;861;48.808;9.006;2022-10-03T15:50:53;98014.34;;;16.92;59.17
41703;BME280;861;48.808;9.006;2022-10-03T15:53:47;98015.47;;;17.01;59.02
41703;BME280;861;48.808;9.006;2022-10-03T15:56:44;98013.97;;;16.90;60.29
41703;BME280;861;48.808;9.006;2022-10-03T15:59:36;98024.25;;;16.78;61.45
41703;BME280;861;48.808;9.006;2022-10-03T16:02:40;98016.88;;;16.65;61.60
41703;BME280;861;48.808;9.006;2022-10-03T16:06:04;98011.00;;;16.59;62.02
41703;BME280;861;48.808;9.006;2022-10-03T16:09:37;98014.88;;;16.69;60.62
41703;BME280;861;48.808;9.006;2022-10-03T16:13:03;98016.41;;;16.73;60.59
41703;BME280;861;48.808;9.006;2022-10-03T16:19:26;98004.00;;;16.44;64.31
41703;BME280;861;48.808;9.006;2022-10-03T16:22:38;98011.84;;;16.39;64.59
41703;BME280;861;48.808;9.006;2022-10-03T16:26:06;98007.19;;;16.29;64.59
41703;BME280;861;48.808;9.006;2022-10-03T16:29:33;98002.81;;;16.42;66.81
41703;BME280;861;48.808;9.006;2022-10-03T16:32:29;97998.13;;;16.46;68.13
41703;BME280;861;48.808;9.006;2022-10-03T16:35:53;98001.66;;;16.46;67.87
41703;BME280;861;48.808;9.006;2022-10-03T16:38:59;98003.25;;;16.37;66.94
41703;BME280;861;48.808;9.006;2022-10-03T16:41:52;98008.75;;;16.30;66.26
41703;BME280;861;48.808;9.006;2022-10-03T16:44:53;98011.94;;;16.18;67.97
41703;BME280;861;48.808;9.006;2022-10-03T16:47:44;98008.81;;;16.16;68.07
41703;BME280;861;48.808;9.006;2022-10-03T16:50:53;98021.41;;;16.03;68.87
41703;BME280;861;48.808;9.006;2022-10-03T16:53:44;98023.78;;;16.01;69.79
41703;BME280;861;48.808;9.006;2022-10-03T16:56:44;98018.69;;;15.92;69.56
41703;BME280;861;48.808;9.006;2022-10-03T16:59:38;98013.63;;;15.73;71.04
41703;BME280;861;48.808;9.006;2022-10-03T17:02:31;98017.16;;;15.74;69.80
41703;BME280;861;48.808;9.006;2022-10-03T17:05:23;98006.94;;;15.78;69.63
41703;BME280;861;48.808;9.006;2022-10-03T17:08:17;98006.19;;;15.77;68.83
41703;BME280;861;48.808;9.006;2022-10-03T17:11:16;98000.28;;;15.68;67.73
41703;BME280;861;48.808;9.006;2022-10-03T17:14:09;97996.38;;;15.62;67.98
41703;BME280;861;48.808;9.006;2022-10-03T17:27:08;98003.44;;;15.17;69.36
41703;BME280;861;48.808;9.006;2022-10-03T17:33:51;97993.59;;;14.81;70.34
41703;BME280;861;48.808;9.006;2022-10-03T17:37:18;98002.25;;;14.76;70.29
41703;BME280;861;48.808;9.006;2022-10-03T17:45:43;98000.59;;;14.51;72.37
41703;BME280;861;48.808;9.006;2022-10-03T17:52:20;98004.50;;;14.50;72.05
41703;BME280;861;48.808;9.006;2022-10-03T17:55:28;98000.22;;;14.56;72.60
41703;BME280;861;48.808;9.006;2022-10-03T17:58:24;97996.28;;;14.53;72.78
41703;BME280;861;48.808;9.006;2022-10-03T18:01:34;97993.13;;;14.41;73.12
41703;BME280;861;48.808;9.006;2022-10-03T18:04:41;97995.09;;;14.47;72.68
41703;BME280;861;48.808;9.006;2022-10-03T18:07:35;97991.19;;;14.48;73.24
41703;BME280;861;48.808;9.006;2022-10-03T18:10:35;97987.25;;;14.42;73.13
41703;BME280;861;48.808;9.006;2022-10-03T18:13:42;97981.75;;;14.39;73.60
41703;BME280;861;48.808;9.006;2022-10-03T18:16:36;97981.00;;;14.42;73.67
41703;BME280;861;48.808;9.006;2022-10-03T18:20:07;97981.38;;;14.33;73.64
41703;BME280;861;48.808;9.006;2022-10-03T18:23:34;97973.91;;;14.30;74.74
41703;BME280;861;48.808;9.006;2022-10-03T18:26:34;97973.81;;;14.13;74.95
41703;BME280;861;48.808;9.006;2022-10-03T18:29:49;97969.06;;;14.03;75.06
41703;BME280;861;48.808;9.006;2022-10-03T18:32:45;97982.78;;;13.99;75.41
41703;BME280;861;48.808;9.006;2022-10-03T18:35:36;97983.13;;;13.94;75.14
41703;BME280;861;48.808;9.006;2022-10-03T18:38:34;97977.66;;;13.94;74.54
41703;BME280;861;48.808;9.006;2022-10-03T18:41:21;97983.50;;;13.89;75.01
41703;BME280;861;48.808;9.006;2022-10-03T18:44:18;97982.31;;;13.90;75.45
41703;BME280;861;48.808;9.006;2022-10-03T18:47:25;97981.94;;;13.95;74.89
41703;BME280;861;48.808;9.006;2022-10-03T18:53:40;97983.06;;;13.19;76.87
41703;BME280;861;48.808;9.006;2022-10-03T18:56:33;97982.41;;;12.96;77.86
41703;BME280;861;48.808;9.006;2022-10-03T18:59:59;97979.09;;;13.16;77.09
41703;BME280;861;48.808;9.006;2022-10-03T19:03:18;97984.25;;;13.25;76.05
41703;BME280;861;48.808;9.006;2022-10-03T19:06:36;97995.66;;;13.34;76.01
41703;BME280;861;48.808;9.006;2022-10-03T19:09:34;97983.13;;;13.29;75.76
41703;BME280;861;48.808;9.006;2022-10-03T19:12:33;97984.22;;;13.21;75.95
41703;BME280;861;48.808;9.006;2022-10-03T19:19:59;97991.50;;;13.03;76.96
41703;BME280;861;48.808;9.006;2022-10-03T19:23:22;98000.44;;;13.00;76.92
41703;BME280;861;48.808;9.006;2022-10-03T19:26:28;97993.31;;;12.92;77.14
41703;BME280;861;48.808;9.006;2022-10-03T19:29:45;97997.53;;;12.83;77.65
41703;BME280;861;48.808;9.006;2022-10-03T19:33:01;97997.97;;;12.88;77.25
41703;BME280;861;48.808;9.006;2022-10-03T19:36:04;97985.13;;;12.92;77.18
41703;BME280;861;48.808;9.006;2022-10-03T19:39:00;97991.44;;;13.00;76.57
41703;BME280;861;48.808;9.006;2022-10-03T19:45:26;97988.97;;;12.88;77.20
41703;BME280;861;48.808;9.006;2022-10-03T19:48:13;97985.88;;;12.86;77.01
41703;BME280;861;48.808;9.006;2022-10-03T19:51:31;97983.56;;;12.91;76.84
41703;BME280;861;48.808;9.006;2022-10-03T19:54:51;97982.47;;;12.99;76.24
41703;BME280;861;48.808;9.006;2022-10-03T19:58:17;97979.38;;;13.01;75.88
41703;BME280;861;48.808;9.006;2022-10-03T20:01:07;97984.00;;;12.97;75.35
41703;BME280;861;48.808;9.006;2022-10-03T20:03:56;97980.34;;;12.82;75.74
41703;BME280;861;48.808;9.006;2022-10-03T20:06:49;97977.16;;;12.77;76.11
41703;BME280;861;48.808;9.006;2022-10-03T20:09:55;97975.19;;;12.74;75.38
41703;BME280;861;48.808;9.006;2022-10-03T20:12:51;97977.84;;;12.63;75.50
41703;BME280;861;48.808;9.006;2022-10-03T20:15:49;97981.13;;;12.43;75.60
41703;BME280;861;48.808;9.006;2022-10-03T20:18:37;97985.69;;;12.31;75.42
41703;BME280;861;48.808;9.006;2022-10-03T20:21:28;97981.00;;;11.99;76.64
41703;BME280;861;48.808;9.006;2022-10-03T20:24:38;97972.63;;;11.59;78.57
41703;BME280;861;48.808;9.006;2022-10-03T20:27:54;97975.78;;;11.87;77.10
41703;BME280;861;48.808;9.006;2022-10-03T20:30:51;97973.72;;;11.80;76.74
41703;BME280;861;48.808;9.006;2022-10-03T20:33:38;97971.38;;;11.79;77.32
41703;BME280;861;48.808;9.006;2022-10-03T20:36:38;97971.00;;;11.80;76.79
41703;BME280;861;48.808;9.006;2022-10-03T20:39:37;97975.31;;;11.81;77.31
41703;BME280;861;48.808;9.006;2022-10-03T20:42:31;97977.63;;;11.79;77.10
41703;BME280;861;48.808;9.006;2022-10-03T20:45:28;97972.22;;;11.83;77.27
41703;BME280;861;48.808;9.006;2022-10-03T20:48:26;97975.69;;;11.80;77.37
41703;BME280;861;48.808;9.006;2022-10-03T20:51:22;97981.72;;;11.66;77.20
41703;BME280;861;48.808;9.006;2022-10-03T20:54:22;97980.53;;;11.64;77.42
41703;BME280;861;48.808;9.006;2022-10-03T20:57:22;97982.38;;;11.56;76.99
41703;BME280;861;48.808;9.006;2022-10-03T21:03:20;97971.34;;;11.49;78.20
41703;BME280;861;48.808;9.006;2022-10-03T21:06:25;97965.56;;;11.54;78.01
41703;BME280;861;48.808;9.006;2022-10-03T21:09:23;97957.91;;;11.63;78.55
41703;BME280;861;48.808;9.006;2022-10-03T21:12:31;97954.94;;;11.72;77.53
41703;BME280;861;48.808;9.006;2022-10-03T21:15:50;97953.38;;;11.74;77.44
41703;BME280;861;48.808;9.006;2022-10-03T21:18:49;97953.81;;;11.76;76.62
41703;BME280;861;48.808;9.006;2022-10-03T21:21:50;97951.97;;;11.84;77.04
41703;BME280;861;48.808;9.006;2022-10-03T21:24:55;97949.22;;;11.84;75.75
41703;BME280;861;48.808;9.006;2022-10-03T21:27:55;97940.53;;;11.75;76.78
41703;BME280;861;48.808;9.006;2022-10-03T21:38:31;97936.91;;;11.12;78.10
41703;BME280;861;48.808;9.006;2022-10-03T21:42:09;97930.38;;;10.94;79.01
